PWSweather.com
Personal Weather Stations
Station Observations
GEELONGWX1
Bell Post Hill, GeelongAU

Bell Post HillGeelongAU

Lat: -38.101, Lon: 144.326

Elevation: 204

Station Type: Davis Vantage Pro2

http://www.geelongweather.com

High Low Average
Temperature 62.1°F16.7°F 39.8°F4.3°F 50.4°F10.2°F
Dew Point 51.7°F10.9°F 37.1°F2.8°F 43.8°F6.6°F
Winds 12.7 mph SSW20.4 mph SSW Calm Calm 3.9 mph 6.3 mph
Wind Gusts 19.6 mph31.5 mph -- 6.2 mph10.0 mph
Humidity 93% 58% 79%
Pressure 29.99 in1015.60 in 29.87 in1011.50 in -
Precipitation 0.02 in0.50 in - -
Hour Temp Dew Point Humidity Winds Wind Gusts Pressure Precip Precip Rate Daily Precip Total
12:00 AM 45.5°F7.5°C 42.7°F5.9°C 90% 2.3 mph SW3.7 kmh SW 2.3 mph3.7 kmh 29.88 in1011.9 mb - 0.00 in0.0 mm 0.00 in0.0 mm
12:10 AM 45.4°F7.4°C 42.6°F5.9°C 90% 2.3 mph SW3.7 kmh SW 4.6 mph7.4 kmh 29.88 in1011.9 mb - 0.00 in0.0 mm 0.00 in0.0 mm
12:20 AM 45.4°F7.4°C 42.6°F5.9°C 90% 2.3 mph SW3.7 kmh SW 5.8 mph9.3 kmh 29.88 in1011.9 mb - 0.00 in0.0 mm 0.00 in0.0 mm
12:30 AM 45.4°F7.4°C 42.9°F6.1°C 91% 4.6 mph SW7.4 kmh SW 9.2 mph14.8 kmh 29.89 in1012.2 mb - 0.00 in0.0 mm 0.00 in0.0 mm
12:40 AM 45.6°F7.6°C 42.8°F6.0°C 90% 4.6 mph SW7.4 kmh SW 5.8 mph9.3 kmh 29.88 in1011.9 mb - 0.00 in0.0 mm 0.00 in0.0 mm
12:50 AM 45.6°F7.6°C 42.8°F6.0°C 90% 6.9 mph SW11.1 kmh SW 10.4 mph16.7 kmh 29.88 in1011.9 mb - 0.00 in0.0 mm 0.00 in0.0 mm
01:00 AM 45.7°F7.6°C 42.9°F6.1°C 90% 2.3 mph SW3.7 kmh SW 5.8 mph9.3 kmh 29.89 in1012.2 mb - 0.00 in0.0 mm 0.00 in0.0 mm
01:10 AM 45.7°F7.6°C 42.9°F6.1°C 90% 3.5 mph SSW5.6 kmh SSW 3.5 mph5.6 kmh 29.89 in1012.2 mb - 0.00 in0.0 mm 0.00 in0.0 mm
01:20 AM 45.7°F7.6°C 42.9°F6.1°C 90% 4.6 mph SW7.4 kmh SW 5.8 mph9.3 kmh 29.89 in1012.2 mb - 0.00 in0.0 mm 0.00 in0.0 mm
01:30 AM 45.6°F7.6°C 42.9°F6.1°C 90% 2.3 mph SW3.7 kmh SW 4.6 mph7.4 kmh 29.88 in1011.9 mb - 0.00 in0.0 mm 0.00 in0.0 mm
01:40 AM 45.4°F7.4°C 42.6°F5.9°C 90% 3.5 mph SW5.6 kmh SW 5.8 mph9.3 kmh 29.88 in1011.9 mb - 0.00 in0.0 mm 0.00 in0.0 mm
01:50 AM 45.1°F7.3°C 42.3°F5.7°C 90% 4.6 mph SW7.4 kmh SW 5.8 mph9.3 kmh 29.88 in1011.9 mb - 0.00 in0.0 mm 0.00 in0.0 mm
02:00 AM 44.8°F7.1°C 41.8°F5.4°C 89% 3.5 mph SW5.6 kmh SW 4.6 mph7.4 kmh 29.88 in1011.9 mb - 0.00 in0.0 mm 0.00 in0.0 mm
02:10 AM 44.4°F6.9°C 41.4°F5.2°C 89% 2.3 mph SSW3.7 kmh SSW 3.5 mph5.6 kmh 29.88 in1011.9 mb - 0.00 in0.0 mm 0.00 in0.0 mm
02:20 AM 44.2°F6.8°C 41.2°F5.1°C 89% 2.3 mph SSW3.7 kmh SSW 4.6 mph7.4 kmh 29.88 in1011.9 mb - 0.00 in0.0 mm 0.00 in0.0 mm
02:30 AM 43.9°F6.6°C 40.9°F4.9°C 89% 4.6 mph SW7.4 kmh SW 9.2 mph14.8 kmh 29.88 in1011.9 mb - 0.00 in0.0 mm 0.00 in0.0 mm
02:40 AM 43.6°F6.4°C 40.9°F4.9°C 90% 2.3 mph SSW3.7 kmh SSW 5.8 mph9.3 kmh 29.88 in1011.9 mb - 0.00 in0.0 mm 0.00 in0.0 mm
02:50 AM 43.4°F6.3°C 40.4°F4.7°C 89% 3.5 mph SW5.6 kmh SW 6.9 mph11.1 kmh 29.88 in1011.9 mb - 0.00 in0.0 mm 0.00 in0.0 mm
03:00 AM 43.2°F6.2°C 40.5°F4.7°C 90% 3.5 mph SW5.6 kmh SW 5.8 mph9.3 kmh 29.87 in1011.5 mb - 0.00 in0.0 mm 0.00 in0.0 mm
03:10 AM 43.1°F6.2°C 40.3°F4.6°C 90% 3.5 mph SW5.6 kmh SW 5.8 mph9.3 kmh 29.88 in1011.9 mb - 0.00 in0.0 mm 0.00 in0.0 mm
03:20 AM 42.9°F6.1°C 40.2°F4.6°C 90% 5.8 mph SW9.3 kmh SW 8.1 mph13.0 kmh 29.87 in1011.5 mb - 0.00 in0.0 mm 0.00 in0.0 mm
03:30 AM 42.7°F5.9°C 40.0°F4.4°C 90% 4.6 mph SW7.4 kmh SW 4.6 mph7.4 kmh 29.87 in1011.5 mb - 0.00 in0.0 mm 0.00 in0.0 mm
03:40 AM 42.6°F5.9°C 39.9°F4.4°C 90% 2.3 mph SSW3.7 kmh SSW 3.5 mph5.6 kmh 29.88 in1011.9 mb - 0.00 in0.0 mm 0.00 in0.0 mm
03:50 AM 42.4°F5.8°C 39.7°F4.3°C 90% 2.3 mph SSW3.7 kmh SSW 3.5 mph5.6 kmh 29.88 in1011.9 mb - 0.00 in0.0 mm 0.00 in0.0 mm
04:00 AM 42.2°F5.7°C 39.5°F4.2°C 90% 2.3 mph SW3.7 kmh SW 4.6 mph7.4 kmh 29.88 in1011.9 mb - 0.00 in0.0 mm 0.00 in0.0 mm
04:10 AM 41.9°F5.5°C 39.1°F3.9°C 90% 2.3 mph SW3.7 kmh SW 3.5 mph5.6 kmh 29.88 in1011.9 mb - 0.00 in0.0 mm 0.00 in0.0 mm
04:20 AM 41.6°F5.3°C 38.9°F3.8°C 90% 2.3 mph SW3.7 kmh SW 3.5 mph5.6 kmh 29.88 in1011.9 mb - 0.00 in0.0 mm 0.00 in0.0 mm
04:30 AM 41.3°F5.2°C 38.3°F3.5°C 89% 2.3 mph SW3.7 kmh SW 3.5 mph5.6 kmh 29.88 in1011.9 mb - 0.00 in0.0 mm 0.00 in0.0 mm
04:40 AM 41.0°F5.0°C 38.3°F3.5°C 90% 3.5 mph SW5.6 kmh SW 3.5 mph5.6 kmh 29.88 in1011.9 mb - 0.00 in0.0 mm 0.00 in0.0 mm
04:50 AM 40.8°F4.9°C 38.1°F3.4°C 90% 3.5 mph SSW5.6 kmh SSW 4.6 mph7.4 kmh 29.88 in1011.9 mb - 0.00 in0.0 mm 0.00 in0.0 mm
05:00 AM 40.6°F4.8°C 37.9°F3.3°C 90% 2.3 mph SSW3.7 kmh SSW 4.6 mph7.4 kmh 29.89 in1012.2 mb - 0.00 in0.0 mm 0.00 in0.0 mm
05:10 AM 40.3°F4.6°C 37.6°F3.1°C 90% 3.5 mph SSW5.6 kmh SSW 4.6 mph7.4 kmh 29.89 in1012.2 mb - 0.00 in0.0 mm 0.00 in0.0 mm
05:20 AM 40.3°F4.6°C 37.6°F3.1°C 90% 3.5 mph SW5.6 kmh SW 3.5 mph5.6 kmh 29.89 in1012.2 mb - 0.00 in0.0 mm 0.00 in0.0 mm
05:30 AM 40.2°F4.6°C 37.5°F3.1°C 90% 3.5 mph SW5.6 kmh SW 3.5 mph5.6 kmh 29.89 in1012.2 mb - 0.00 in0.0 mm 0.00 in0.0 mm
05:40 AM 40.1°F4.5°C 37.4°F3.0°C 90% 3.5 mph S5.6 kmh S 3.5 mph5.6 kmh 29.90 in1012.5 mb - 0.00 in0.0 mm 0.00 in0.0 mm
05:50 AM 40.0°F4.4°C 37.3°F2.9°C 90% 3.5 mph S5.6 kmh S 3.5 mph5.6 kmh 29.90 in1012.5 mb - 0.00 in0.0 mm 0.00 in0.0 mm
06:00 AM 39.9°F4.4°C 37.2°F2.9°C 90% 3.5 mph SSW5.6 kmh SSW 4.6 mph7.4 kmh 29.90 in1012.5 mb - 0.00 in0.0 mm 0.00 in0.0 mm
06:10 AM 39.8°F4.3°C 37.1°F2.8°C 90% 3.5 mph S5.6 kmh S 5.8 mph9.3 kmh 29.90 in1012.5 mb - 0.00 in0.0 mm 0.00 in0.0 mm
06:20 AM 39.8°F4.3°C 37.4°F3.0°C 91% 3.5 mph S5.6 kmh S 5.8 mph9.3 kmh 29.91 in1012.9 mb - 0.00 in0.0 mm 0.00 in0.0 mm
06:30 AM 39.9°F4.4°C 37.5°F3.1°C 91% 3.5 mph S5.6 kmh S 6.9 mph11.1 kmh 29.91 in1012.9 mb - 0.00 in0.0 mm 0.00 in0.0 mm
06:40 AM 40.1°F4.5°C 37.7°F3.2°C 91% 3.5 mph S5.6 kmh S 3.5 mph5.6 kmh 29.92 in1013.2 mb - 0.00 in0.0 mm 0.00 in0.0 mm
06:50 AM 40.6°F4.8°C 38.4°F3.6°C 92% 3.5 mph S5.6 kmh S 4.6 mph7.4 kmh 29.92 in1013.2 mb - 0.00 in0.0 mm 0.00 in0.0 mm
07:00 AM 41.1°F5.1°C 38.9°F3.8°C 92% 4.6 mph SSW7.4 kmh SSW 5.8 mph9.3 kmh 29.93 in1013.5 mb - 0.00 in0.0 mm 0.00 in0.0 mm
07:10 AM 42.0°F5.6°C 40.1°F4.5°C 93% 4.6 mph SSW7.4 kmh SSW 5.8 mph9.3 kmh 29.93 in1013.5 mb - 0.00 in0.0 mm 0.00 in0.0 mm
07:20 AM 42.9°F6.1°C 41.1°F5.1°C 93% 5.8 mph SSW9.3 kmh SSW 9.2 mph14.8 kmh 29.93 in1013.5 mb - 0.00 in0.0 mm 0.00 in0.0 mm
07:30 AM 43.8°F6.6°C 41.9°F5.5°C 93% 5.8 mph SSW9.3 kmh SSW 12.7 mph20.4 kmh 29.93 in1013.5 mb - 0.00 in0.0 mm 0.00 in0.0 mm
07:40 AM 44.6°F7.0°C 42.7°F5.9°C 93% 5.8 mph S9.3 kmh S 8.1 mph13.0 kmh 29.93 in1013.5 mb - 0.00 in0.0 mm 0.00 in0.0 mm
07:50 AM 45.5°F7.5°C 43.6°F6.4°C 93% 4.6 mph S7.4 kmh S 5.8 mph9.3 kmh 29.94 in1013.9 mb - 0.00 in0.0 mm 0.00 in0.0 mm
08:00 AM 46.5°F8.1°C 44.6°F7.0°C 93% 3.5 mph SSW5.6 kmh SSW 6.9 mph11.1 kmh 29.94 in1013.9 mb - 0.00 in0.0 mm 0.00 in0.0 mm
08:10 AM 47.2°F8.4°C 45.0°F7.2°C 92% 6.9 mph S11.1 kmh S 10.4 mph16.7 kmh 29.94 in1013.9 mb - 0.00 in0.0 mm 0.00 in0.0 mm
08:20 AM 47.9°F8.8°C 45.7°F7.6°C 92% 6.9 mph SW11.1 kmh SW 11.5 mph18.5 kmh 29.94 in1013.9 mb - 0.00 in0.0 mm 0.00 in0.0 mm
08:30 AM 48.3°F9.1°C 45.8°F7.7°C 91% 5.8 mph SW9.3 kmh SW 12.7 mph20.4 kmh 29.95 in1014.2 mb - 0.00 in0.0 mm 0.00 in0.0 mm
08:40 AM 48.8°F9.3°C 46.3°F7.9°C 91% 4.6 mph S7.4 kmh S 10.4 mph16.7 kmh 29.95 in1014.2 mb - 0.00 in0.0 mm 0.00 in0.0 mm
08:50 AM 49.4°F9.7°C 46.9°F8.3°C 91% 6.9 mph SSW11.1 kmh SSW 10.4 mph16.7 kmh 29.95 in1014.2 mb - 0.00 in0.0 mm 0.00 in0.0 mm
09:00 AM 50.1°F10.1°C 47.0°F8.3°C 89% 5.8 mph SSW9.3 kmh SSW 11.5 mph18.5 kmh 29.95 in1014.2 mb - 0.00 in0.0 mm 0.00 in0.0 mm
09:10 AM 51.0°F10.6°C 47.5°F8.6°C 88% 5.8 mph SW9.3 kmh SW 10.4 mph16.7 kmh 29.95 in1014.2 mb - 0.00 in0.0 mm 0.00 in0.0 mm
09:20 AM 52.1°F11.2°C 48.3°F9.1°C 87% 6.9 mph SSW11.1 kmh SSW 13.8 mph22.2 kmh 29.95 in1014.2 mb - 0.00 in0.0 mm 0.00 in0.0 mm
09:30 AM 53.3°F11.8°C 48.9°F9.4°C 85% 6.9 mph SSW11.1 kmh SSW 10.4 mph16.7 kmh 29.95 in1014.2 mb - 0.00 in0.0 mm 0.00 in0.0 mm
09:40 AM 53.7°F12.1°C 49.0°F9.4°C 84% 5.8 mph SW9.3 kmh SW 9.2 mph14.8 kmh 29.95 in1014.2 mb - 0.00 in0.0 mm 0.00 in0.0 mm
09:50 AM 53.9°F12.2°C 48.5°F9.2°C 82% 6.9 mph SW11.1 kmh SW 10.4 mph16.7 kmh 29.95 in1014.2 mb - 0.00 in0.0 mm 0.00 in0.0 mm
10:00 AM 55.5°F13.1°C 49.8°F9.9°C 81% 6.9 mph SSW11.1 kmh SSW 10.4 mph16.7 kmh 29.95 in1014.2 mb - 0.00 in0.0 mm 0.00 in0.0 mm
10:10 AM 55.9°F13.3°C 49.5°F9.7°C 79% 6.9 mph S11.1 kmh S 11.5 mph18.5 kmh 29.95 in1014.2 mb - 0.00 in0.0 mm 0.00 in0.0 mm
10:20 AM 55.5°F13.1°C 49.8°F9.9°C 81% 4.6 mph SSW7.4 kmh SSW 6.9 mph11.1 kmh 29.95 in1014.2 mb - 0.00 in0.0 mm 0.00 in0.0 mm
10:30 AM 57.7°F14.3°C 50.1°F10.1°C 76% 9.2 mph SW14.8 kmh SW 11.5 mph18.5 kmh 29.95 in1014.2 mb - 0.00 in0.0 mm 0.00 in0.0 mm
10:40 AM 57.7°F14.3°C 50.1°F10.1°C 76% 4.6 mph SW7.4 kmh SW 4.6 mph7.4 kmh 29.95 in1014.2 mb - 0.00 in0.0 mm 0.00 in0.0 mm
10:50 AM 57.1°F13.9°C 49.6°F9.8°C 76% 4.6 mph S7.4 kmh S 9.2 mph14.8 kmh 29.95 in1014.2 mb - 0.00 in0.0 mm 0.00 in0.0 mm
11:00 AM 57.9°F14.4°C 50.0°F10.0°C 75% 8.1 mph S13.0 kmh S 10.4 mph16.7 kmh 29.95 in1014.2 mb - 0.00 in0.0 mm 0.00 in0.0 mm
11:10 AM 57.8°F14.3°C 49.5°F9.7°C 74% 4.6 mph S7.4 kmh S 5.8 mph9.3 kmh 29.95 in1014.2 mb - 0.00 in0.0 mm 0.00 in0.0 mm
11:20 AM 56.7°F13.7°C 50.2°F10.1°C 79% 3.5 mph SSW5.6 kmh SSW 3.5 mph5.6 kmh 29.95 in1014.2 mb - 0.00 in0.0 mm 0.00 in0.0 mm
11:30 AM 55.5°F13.1°C 50.4°F10.2°C 83% 6.9 mph SW11.1 kmh SW 11.5 mph18.5 kmh 29.95 in1014.2 mb - 0.00 in0.0 mm 0.00 in0.0 mm
11:40 AM 55.8°F13.2°C 50.7°F10.4°C 83% 12.7 mph SSW20.4 kmh SSW 19.6 mph31.5 kmh 29.95 in1014.2 mb - 0.00 in0.0 mm 0.00 in0.0 mm
11:50 AM 54.3°F12.4°C 50.5°F10.3°C 87% 6.9 mph SW11.1 kmh SW 8.1 mph13.0 kmh 29.95 in1014.2 mb - 0.01 in0.3 mm 0.01 in0.3 mm
12:00 PM 54.0°F12.2°C 51.1°F10.6°C 90% 2.3 mph SSW3.7 kmh SSW 3.5 mph5.6 kmh 29.95 in1014.2 mb - 0.00 in0.0 mm 0.01 in0.3 mm
12:10 PM 55.2°F12.9°C 51.7°F10.9°C 88% 9.2 mph SW14.8 kmh SW 11.5 mph18.5 kmh 29.95 in1014.2 mb - 0.00 in0.0 mm 0.01 in0.3 mm
12:20 PM 55.3°F12.9°C 51.1°F10.6°C 86% 8.1 mph S13.0 kmh S 11.5 mph18.5 kmh 29.95 in1014.2 mb - 0.00 in0.0 mm 0.01 in0.3 mm
12:30 PM 55.0°F12.8°C 50.3°F10.2°C 84% 10.4 mph S16.7 kmh S 16.1 mph25.9 kmh 29.95 in1014.2 mb - 0.00 in0.0 mm 0.01 in0.3 mm
12:40 PM 56.0°F13.3°C 50.6°F10.3°C 82% 10.4 mph S16.7 kmh S 12.7 mph20.4 kmh 29.95 in1014.2 mb - 0.00 in0.0 mm 0.01 in0.3 mm
12:50 PM 56.2°F13.4°C 50.4°F10.2°C 81% 10.4 mph S16.7 kmh S 15.0 mph24.1 kmh 29.96 in1014.6 mb - 0.00 in0.0 mm 0.01 in0.3 mm
01:00 PM 53.6°F12.0°C 49.8°F9.9°C 87% 8.1 mph SW13.0 kmh SW 10.4 mph16.7 kmh 29.96 in1014.6 mb - 0.01 in0.3 mm 0.02 in0.5 mm
01:10 PM 54.0°F12.2°C 50.8°F10.4°C 89% 6.9 mph SW11.1 kmh SW 9.2 mph14.8 kmh 29.96 in1014.6 mb - 0.00 in0.0 mm 0.02 in0.5 mm
01:20 PM 55.6°F13.1°C 51.2°F10.7°C 85% 8.1 mph SW13.0 kmh SW 9.2 mph14.8 kmh 29.95 in1014.2 mb - 0.00 in0.0 mm 0.02 in0.5 mm
01:30 PM 56.8°F13.8°C 50.0°F10.0°C 78% 8.1 mph SSW13.0 kmh SSW 17.3 mph27.8 kmh 29.95 in1014.2 mb - 0.00 in0.0 mm 0.02 in0.5 mm
01:40 PM 57.9°F14.4°C 50.0°F10.0°C 75% 8.1 mph S13.0 kmh S 11.5 mph18.5 kmh 29.95 in1014.2 mb - 0.00 in0.0 mm 0.02 in0.5 mm
01:50 PM 58.2°F14.6°C 48.9°F9.4°C 71% 8.1 mph S13.0 kmh S 13.8 mph22.2 kmh 29.95 in1014.2 mb - 0.00 in0.0 mm 0.02 in0.5 mm
02:00 PM 59.7°F15.4°C 48.3°F9.1°C 66% 8.1 mph S13.0 kmh S 12.7 mph20.4 kmh 29.95 in1014.2 mb - 0.00 in0.0 mm 0.02 in0.5 mm
02:10 PM 59.3°F15.2°C 47.1°F8.4°C 64% 6.9 mph S11.1 kmh S 8.1 mph13.0 kmh 29.95 in1014.2 mb - 0.00 in0.0 mm 0.02 in0.5 mm
02:20 PM 59.6°F15.3°C 47.4°F8.6°C 64% 10.4 mph SSW16.7 kmh SSW 15.0 mph24.1 kmh 29.95 in1014.2 mb - 0.00 in0.0 mm 0.02 in0.5 mm
02:30 PM 61.2°F16.2°C 48.1°F8.9°C 62% 9.2 mph SW14.8 kmh SW 13.8 mph22.2 kmh 29.95 in1014.2 mb - 0.00 in0.0 mm 0.02 in0.5 mm
02:40 PM 61.1°F16.2°C 48.4°F9.1°C 63% 4.6 mph S7.4 kmh S 11.5 mph18.5 kmh 29.94 in1013.9 mb - 0.00 in0.0 mm 0.02 in0.5 mm
02:50 PM 62.1°F16.7°C 48.9°F9.4°C 62% 5.8 mph S9.3 kmh S 11.5 mph18.5 kmh 29.94 in1013.9 mb - 0.00 in0.0 mm 0.02 in0.5 mm
03:00 PM 61.8°F16.6°C 46.8°F8.2°C 58% 8.1 mph S13.0 kmh S 18.4 mph29.6 kmh 29.94 in1013.9 mb - 0.00 in0.0 mm 0.02 in0.5 mm
03:10 PM 60.3°F15.7°C 45.9°F7.7°C 59% 8.1 mph S13.0 kmh S 9.2 mph14.8 kmh 29.94 in1013.9 mb - 0.00 in0.0 mm 0.02 in0.5 mm
03:20 PM 61.6°F16.4°C 48.0°F8.9°C 61% 8.1 mph S13.0 kmh S 10.4 mph16.7 kmh 29.94 in1013.9 mb - 0.00 in0.0 mm 0.02 in0.5 mm
03:30 PM 61.6°F16.4°C 46.7°F8.2°C 58% 5.8 mph SSW9.3 kmh SSW 6.9 mph11.1 kmh 29.95 in1014.2 mb - 0.00 in0.0 mm 0.02 in0.5 mm
03:40 PM 61.4°F16.3°C 47.4°F8.6°C 60% 6.9 mph SSW11.1 kmh SSW 10.4 mph16.7 kmh 29.95 in1014.2 mb - 0.00 in0.0 mm 0.02 in0.5 mm
03:50 PM 61.2°F16.2°C 46.7°F8.2°C 59% 5.8 mph SW9.3 kmh SW 11.5 mph18.5 kmh 29.95 in1014.2 mb - 0.00 in0.0 mm 0.02 in0.5 mm
04:00 PM 60.6°F15.9°C 46.1°F7.8°C 59% 5.8 mph SW9.3 kmh SW 11.5 mph18.5 kmh 29.95 in1014.2 mb - 0.00 in0.0 mm 0.02 in0.5 mm
04:10 PM 60.4°F15.8°C 46.0°F7.8°C 59% 2.3 mph SSW3.7 kmh SSW 6.9 mph11.1 kmh 29.95 in1014.2 mb - 0.00 in0.0 mm 0.02 in0.5 mm
04:20 PM 60.2°F15.7°C 45.8°F7.7°C 59% 4.6 mph S7.4 kmh S 8.1 mph13.0 kmh 29.95 in1014.2 mb - 0.00 in0.0 mm 0.02 in0.5 mm
04:30 PM 60.2°F15.7°C 46.2°F7.9°C 60% 4.6 mph S7.4 kmh S 8.1 mph13.0 kmh 29.95 in1014.2 mb - 0.00 in0.0 mm 0.02 in0.5 mm
04:40 PM 59.8°F15.4°C 45.0°F7.2°C 58% 3.5 mph SW5.6 kmh SW 5.8 mph9.3 kmh 29.96 in1014.6 mb - 0.00 in0.0 mm 0.02 in0.5 mm
04:50 PM 59.2°F15.1°C 44.5°F6.9°C 58% 2.3 mph SSW3.7 kmh SSW 5.8 mph9.3 kmh 29.96 in1014.6 mb - 0.00 in0.0 mm 0.02 in0.5 mm
05:00 PM 58.1°F14.5°C 44.7°F7.1°C 61% 3.5 mph SSW5.6 kmh SSW 6.9 mph11.1 kmh 29.96 in1014.6 mb - 0.00 in0.0 mm 0.02 in0.5 mm
05:10 PM 58.2°F14.6°C 44.8°F7.1°C 61% 3.5 mph SSW5.6 kmh SSW 8.1 mph13.0 kmh 29.97 in1014.9 mb - 0.00 in0.0 mm 0.02 in0.5 mm
05:20 PM 58.2°F14.6°C 44.4°F6.9°C 60% 5.8 mph SSW9.3 kmh SSW 6.9 mph11.1 kmh 29.97 in1014.9 mb - 0.00 in0.0 mm 0.02 in0.5 mm
05:30 PM 58.1°F14.5°C 44.3°F6.8°C 60% 2.3 mph SSW3.7 kmh SSW 2.3 mph3.7 kmh 29.97 in1014.9 mb - 0.00 in0.0 mm 0.02 in0.5 mm
05:40 PM 57.7°F14.3°C 44.3°F6.8°C 61% 4.6 mph SSW7.4 kmh SSW 8.1 mph13.0 kmh 29.97 in1014.9 mb - 0.00 in0.0 mm 0.02 in0.5 mm
05:50 PM 57.4°F14.1°C 44.5°F6.9°C 62% 1.2 mph SSW1.9 kmh SSW 3.5 mph5.6 kmh 29.97 in1014.9 mb - 0.00 in0.0 mm 0.02 in0.5 mm
06:00 PM 57.1°F13.9°C 44.6°F7.0°C 63% 1.2 mph SW1.9 kmh SW 3.5 mph5.6 kmh 29.98 in1015.2 mb - 0.00 in0.0 mm 0.02 in0.5 mm
06:10 PM 56.7°F13.7°C 44.2°F6.8°C 63% 1.2 mph SW1.9 kmh SW 2.3 mph3.7 kmh 29.98 in1015.2 mb - 0.00 in0.0 mm 0.02 in0.5 mm
06:20 PM 56.3°F13.5°C 44.3°F6.8°C 64% 1.2 mph SW1.9 kmh SW 2.3 mph3.7 kmh 29.98 in1015.2 mb - 0.00 in0.0 mm 0.02 in0.5 mm
06:30 PM 55.7°F13.2°C 43.7°F6.5°C 64% Calm Calm -- 29.98 in1015.2 mb - 0.00 in0.0 mm 0.02 in0.5 mm
06:40 PM 55.2°F12.9°C 43.3°F6.3°C 64% Calm Calm -- 29.98 in1015.2 mb - 0.00 in0.0 mm 0.02 in0.5 mm
06:50 PM 54.8°F12.7°C 43.2°F6.2°C 65% Calm Calm -- 29.98 in1015.2 mb - 0.00 in0.0 mm 0.02 in0.5 mm
07:00 PM 54.2°F12.3°C 42.7°F5.9°C 65% Calm Calm -- 29.98 in1015.2 mb - 0.00 in0.0 mm 0.02 in0.5 mm
07:10 PM 53.6°F12.0°C 42.1°F5.6°C 65% Calm Calm -- 29.98 in1015.2 mb - 0.00 in0.0 mm 0.02 in0.5 mm
07:20 PM 53.1°F11.7°C 42.4°F5.8°C 67% Calm Calm -- 29.98 in1015.2 mb - 0.00 in0.0 mm 0.02 in0.5 mm
07:30 PM 52.7°F11.5°C 43.2°F6.2°C 70% Calm Calm -- 29.98 in1015.2 mb - 0.00 in0.0 mm 0.02 in0.5 mm
07:40 PM 52.3°F11.3°C 43.2°F6.2°C 71% Calm Calm -- 29.98 in1015.2 mb - 0.00 in0.0 mm 0.02 in0.5 mm
07:50 PM 51.9°F11.1°C 42.8°F6.0°C 71% Calm Calm -- 29.99 in1015.6 mb - 0.00 in0.0 mm 0.02 in0.5 mm
08:00 PM 51.6°F10.9°C 42.9°F6.1°C 72% Calm Calm 2.3 mph3.7 kmh 29.99 in1015.6 mb - 0.00 in0.0 mm 0.02 in0.5 mm
08:10 PM 51.3°F10.7°C 43.0°F6.1°C 73% Calm Calm -- 29.98 in1015.2 mb - 0.00 in0.0 mm 0.02 in0.5 mm
08:20 PM 51.1°F10.6°C 42.7°F5.9°C 73% Calm Calm -- 29.98 in1015.2 mb - 0.00 in0.0 mm 0.02 in0.5 mm
08:30 PM 50.8°F10.4°C 42.5°F5.8°C 73% Calm Calm 2.3 mph3.7 kmh 29.99 in1015.6 mb - 0.00 in0.0 mm 0.02 in0.5 mm
08:40 PM 50.5°F10.3°C 42.5°F5.8°C 74% 1.2 mph WSW1.9 kmh WSW 3.5 mph5.6 kmh 29.99 in1015.6 mb - 0.00 in0.0 mm 0.02 in0.5 mm
08:50 PM 50.2°F10.1°C 42.2°F5.7°C 74% Calm Calm 1.2 mph1.9 kmh 29.99 in1015.6 mb - 0.00 in0.0 mm 0.02 in0.5 mm
09:00 PM 49.9°F9.9°C 41.9°F5.5°C 74% Calm Calm 1.2 mph1.9 kmh 29.98 in1015.2 mb - 0.00 in0.0 mm 0.02 in0.5 mm
09:10 PM 49.7°F9.8°C 41.7°F5.4°C 74% Calm Calm -- 29.98 in1015.2 mb - 0.00 in0.0 mm 0.02 in0.5 mm
09:20 PM 49.4°F9.7°C 41.5°F5.3°C 74% Calm Calm -- 29.98 in1015.2 mb - 0.00 in0.0 mm 0.02 in0.5 mm
09:30 PM 49.1°F9.5°C 41.2°F5.1°C 74% Calm Calm -- 29.98 in1015.2 mb - 0.00 in0.0 mm 0.02 in0.5 mm
09:40 PM 48.8°F9.3°C 40.9°F4.9°C 74% Calm Calm -- 29.98 in1015.2 mb - 0.00 in0.0 mm 0.02 in0.5 mm
09:50 PM 48.4°F9.1°C 40.5°F4.7°C 74% Calm Calm -- 29.98 in1015.2 mb - 0.00 in0.0 mm 0.02 in0.5 mm
10:00 PM 48.0°F8.9°C 40.1°F4.5°C 74% Calm Calm -- 29.98 in1015.2 mb - 0.00 in0.0 mm 0.02 in0.5 mm
10:10 PM 47.6°F8.7°C 40.1°F4.5°C 75% Calm Calm -- 29.98 in1015.2 mb - 0.00 in0.0 mm 0.02 in0.5 mm
10:20 PM 47.4°F8.6°C 39.9°F4.4°C 75% Calm Calm -- 29.98 in1015.2 mb - 0.00 in0.0 mm 0.02 in0.5 mm
10:30 PM 47.2°F8.4°C 40.0°F4.4°C 76% 1.2 mph SW1.9 kmh SW 2.3 mph3.7 kmh 29.98 in1015.2 mb - 0.00 in0.0 mm 0.02 in0.5 mm
10:40 PM 47.0°F8.3°C 39.8°F4.3°C 76% Calm Calm -- 29.97 in1014.9 mb - 0.00 in0.0 mm 0.02 in0.5 mm
10:50 PM 46.7°F8.2°C 39.5°F4.2°C 76% Calm Calm -- 29.97 in1014.9 mb - 0.00 in0.0 mm 0.02 in0.5 mm
11:00 PM 46.5°F8.1°C 39.3°F4.1°C 76% Calm Calm -- 29.97 in1014.9 mb - 0.00 in0.0 mm 0.02 in0.5 mm
11:10 PM 46.2°F7.9°C 39.1°F3.9°C 76% Calm Calm -- 29.97 in1014.9 mb - 0.00 in0.0 mm 0.02 in0.5 mm
11:20 PM 46.0°F7.8°C 38.9°F3.8°C 76% Calm Calm -- 29.97 in1014.9 mb - 0.00 in0.0 mm 0.02 in0.5 mm
11:30 PM 45.8°F7.7°C 39.0°F3.9°C 77% Calm Calm -- 29.97 in1014.9 mb - 0.00 in0.0 mm 0.02 in0.5 mm
11:40 PM 45.6°F7.6°C 38.8°F3.8°C 77% 1.2 mph SW1.9 kmh SW 2.3 mph3.7 kmh 29.98 in1015.2 mb - 0.00 in0.0 mm 0.02 in0.5 mm
11:50 PM 45.5°F7.5°C 39.0°F3.9°C 78% 2.3 mph SW3.7 kmh SW 2.3 mph3.7 kmh 29.97 in1014.9 mb - 0.00 in0.0 mm 0.02 in0.5 mm